sensor_id;sensor_type;location;lat;lon;timestamp;temperature;humidity
4308;DHT22;2167;53.448;9.984;2023-04-27T00:00:38;5.50;9.60
4308;DHT22;2167;53.448;9.984;2023-04-27T00:03:04;5.40;10.10
4308;DHT22;2167;53.448;9.984;2023-04-27T00:05:34;5.40;9.70
4308;DHT22;2167;53.448;9.984;2023-04-27T00:08:00;5.50;9.60
4308;DHT22;2167;53.448;9.984;2023-04-27T00:10:25;5.50;9.40
4308;DHT22;2167;53.448;9.984;2023-04-27T00:12:51;5.40;9.20
4308;DHT22;2167;53.448;9.984;2023-04-27T00:15:17;5.50;9.20
4308;DHT22;2167;53.448;9.984;2023-04-27T00:17:42;5.40;9.00
4308;DHT22;2167;53.448;9.984;2023-04-27T00:20:08;5.30;9.30
4308;DHT22;2167;53.448;9.984;2023-04-27T00:22:39;5.30;9.80
4308;DHT22;2167;53.448;9.984;2023-04-27T00:25:06;5.30;10.20
4308;DHT22;2167;53.448;9.984;2023-04-27T00:27:32;5.30;10.90
4308;DHT22;2167;53.448;9.984;2023-04-27T00:29:57;5.30;11.00
4308;DHT22;2167;53.448;9.984;2023-04-27T00:32:23;5.30;10.70
4308;DHT22;2167;53.448;9.984;2023-04-27T00:34:50;5.30;11.20
4308;DHT22;2167;53.448;9.984;2023-04-27T00:37:16;5.20;11.50
4308;DHT22;2167;53.448;9.984;2023-04-27T00:39:42;5.30;11.60
4308;DHT22;2167;53.448;9.984;2023-04-27T00:42:08;5.20;11.50
4308;DHT22;2167;53.448;9.984;2023-04-27T00:44:37;5.10;12.20
4308;DHT22;2167;53.448;9.984;2023-04-27T00:47:03;5.10;12.70
4308;DHT22;2167;53.448;9.984;2023-04-27T00:49:29;5.10;12.90
4308;DHT22;2167;53.448;9.984;2023-04-27T00:51:55;5.00;12.90
4308;DHT22;2167;53.448;9.984;2023-04-27T00:54:22;5.00;13.50
4308;DHT22;2167;53.448;9.984;2023-04-27T00:56:49;5.00;13.70
4308;DHT22;2167;53.448;9.984;2023-04-27T00:59:16;5.00;13.90
4308;DHT22;2167;53.448;9.984;2023-04-27T01:01:42;4.90;14.40
4308;DHT22;2167;53.448;9.984;2023-04-27T01:04:08;5.00;14.50
4308;DHT22;2167;53.448;9.984;2023-04-27T01:06:33;4.90;15.00
4308;DHT22;2167;53.448;9.984;2023-04-27T01:08:59;5.00;15.10
4308;DHT22;2167;53.448;9.984;2023-04-27T01:11:25;4.90;15.30
4308;DHT22;2167;53.448;9.984;2023-04-27T01:13:51;5.00;15.50
4308;DHT22;2167;53.448;9.984;2023-04-27T01:16:18;4.90;15.30
4308;DHT22;2167;53.448;9.984;2023-04-27T01:18:43;4.90;15.20
4308;DHT22;2167;53.448;9.984;2023-04-27T01:21:10;4.90;15.40
4308;DHT22;2167;53.448;9.984;2023-04-27T01:23:36;4.90;15.50
4308;DHT22;2167;53.448;9.984;2023-04-27T01:26:02;4.80;15.70
4308;DHT22;2167;53.448;9.984;2023-04-27T01:28:30;4.80;16.30
4308;DHT22;2167;53.448;9.984;2023-04-27T01:30:56;4.90;16.20
4308;DHT22;2167;53.448;9.984;2023-04-27T01:33:22;4.80;16.40
4308;DHT22;2167;53.448;9.984;2023-04-27T01:35:47;4.80;16.30
4308;DHT22;2167;53.448;9.984;2023-04-27T01:38:13;4.70;16.40
4308;DHT22;2167;53.448;9.984;2023-04-27T01:40:39;4.70;16.80
4308;DHT22;2167;53.448;9.984;2023-04-27T01:43:04;4.80;17.20
4308;DHT22;2167;53.448;9.984;2023-04-27T01:45:30;4.80;17.00
4308;DHT22;2167;53.448;9.984;2023-04-27T01:47:56;4.80;16.90
4308;DHT22;2167;53.448;9.984;2023-04-27T01:50:22;4.70;17.40
4308;DHT22;2167;53.448;9.984;2023-04-27T01:52:50;4.70;17.30
4308;DHT22;2167;53.448;9.984;2023-04-27T01:55:16;4.70;17.60
4308;DHT22;2167;53.448;9.984;2023-04-27T01:57:42;4.70;18.20
4308;DHT22;2167;53.448;9.984;2023-04-27T02:00:08;4.70;18.60
4308;DHT22;2167;53.448;9.984;2023-04-27T02:02:33;4.70;19.10
4308;DHT22;2167;53.448;9.984;2023-04-27T02:04:59;4.70;19.00
4308;DHT22;2167;53.448;9.984;2023-04-27T02:07:25;4.80;18.50
4308;DHT22;2167;53.448;9.984;2023-04-27T02:09:51;4.70;18.40
4308;DHT22;2167;53.448;9.984;2023-04-27T02:12:17;4.80;18.50
4308;DHT22;2167;53.448;9.984;2023-04-27T02:14:43;4.70;18.50
4308;DHT22;2167;53.448;9.984;2023-04-27T02:17:08;4.80;18.70
4308;DHT22;2167;53.448;9.984;2023-04-27T02:19:34;4.80;18.70
4308;DHT22;2167;53.448;9.984;2023-04-27T02:22:00;4.80;18.60
4308;DHT22;2167;53.448;9.984;2023-04-27T02:24:26;4.80;18.50
4308;DHT22;2167;53.448;9.984;2023-04-27T02:26:51;4.80;18.50
4308;DHT22;2167;53.448;9.984;2023-04-27T02:29:21;4.90;18.40
4308;DHT22;2167;53.448;9.984;2023-04-27T02:31:46;4.90;18.10
4308;DHT22;2167;53.448;9.984;2023-04-27T02:34:12;4.80;18.10
4308;DHT22;2167;53.448;9.984;2023-04-27T02:36:38;4.80;17.90
4308;DHT22;2167;53.448;9.984;2023-04-27T02:39:03;4.90;17.70
4308;DHT22;2167;53.448;9.984;2023-04-27T02:41:32;4.90;17.80
4308;DHT22;2167;53.448;9.984;2023-04-27T02:43:58;4.90;17.90
4308;DHT22;2167;53.448;9.984;2023-04-27T02:46:24;5.00;17.90
4308;DHT22;2167;53.448;9.984;2023-04-27T02:48:49;5.00;18.20
4308;DHT22;2167;53.448;9.984;2023-04-27T02:51:15;5.00;18.40
4308;DHT22;2167;53.448;9.984;2023-04-27T02:53:40;5.00;17.90
4308;DHT22;2167;53.448;9.984;2023-04-27T02:56:06;5.00;18.20
4308;DHT22;2167;53.448;9.984;2023-04-27T02:58:32;5.00;17.50
4308;DHT22;2167;53.448;9.984;2023-04-27T03:00:57;5.00;17.00
4308;DHT22;2167;53.448;9.984;2023-04-27T03:03:23;4.90;16.80
4308;DHT22;2167;53.448;9.984;2023-04-27T03:05:48;4.90;16.70
4308;DHT22;2167;53.448;9.984;2023-04-27T03:08:15;4.80;16.50
4308;DHT22;2167;53.448;9.984;2023-04-27T03:10:40;4.80;16.50
4308;DHT22;2167;53.448;9.984;2023-04-27T03:13:06;4.70;17.00
4308;DHT22;2167;53.448;9.984;2023-04-27T03:15:32;4.70;17.90
4308;DHT22;2167;53.448;9.984;2023-04-27T03:17:57;4.70;17.60
4308;DHT22;2167;53.448;9.984;2023-04-27T03:20:23;4.60;17.50
4308;DHT22;2167;53.448;9.984;2023-04-27T03:22:48;4.60;17.80
4308;DHT22;2167;53.448;9.984;2023-04-27T03:25:14;4.60;17.50
4308;DHT22;2167;53.448;9.984;2023-04-27T03:27:39;4.60;17.30
4308;DHT22;2167;53.448;9.984;2023-04-27T03:30:07;4.60;17.10
4308;DHT22;2167;53.448;9.984;2023-04-27T03:32:32;4.50;17.20
4308;DHT22;2167;53.448;9.984;2023-04-27T03:34:58;4.40;17.10
4308;DHT22;2167;53.448;9.984;2023-04-27T03:37:24;4.40;17.70
4308;DHT22;2167;53.448;9.984;2023-04-27T03:39:49;4.30;17.70
4308;DHT22;2167;53.448;9.984;2023-04-27T03:42:15;4.20;17.70
4308;DHT22;2167;53.448;9.984;2023-04-27T03:44:40;4.20;18.20
4308;DHT22;2167;53.448;9.984;2023-04-27T03:47:06;4.20;18.60
4308;DHT22;2167;53.448;9.984;2023-04-27T03:49:34;4.30;19.10
4308;DHT22;2167;53.448;9.984;2023-04-27T03:51:59;4.20;18.80
4308;DHT22;2167;53.448;9.984;2023-04-27T03:54:25;4.20;18.80
4308;DHT22;2167;53.448;9.984;2023-04-27T03:56:50;4.20;18.60
4308;DHT22;2167;53.448;9.984;2023-04-27T03:59:17;4.20;18.40
4308;DHT22;2167;53.448;9.984;2023-04-27T04:01:42;4.20;18.30
4308;DHT22;2167;53.448;9.984;2023-04-27T04:04:08;4.20;18.10
4308;DHT22;2167;53.448;9.984;2023-04-27T04:06:33;4.20;18.40
4308;DHT22;2167;53.448;9.984;2023-04-27T04:08:59;4.20;18.50
4308;DHT22;2167;53.448;9.984;2023-04-27T04:11:25;4.20;18.80
4308;DHT22;2167;53.448;9.984;2023-04-27T04:13:51;4.20;19.40
4308;DHT22;2167;53.448;9.984;2023-04-27T04:16:17;4.30;20.00
4308;DHT22;2167;53.448;9.984;2023-04-27T04:18:43;4.30;20.70
4308;DHT22;2167;53.448;9.984;2023-04-27T04:21:09;4.40;20.80
4308;DHT22;2167;53.448;9.984;2023-04-27T04:23:37;4.30;21.20
4308;DHT22;2167;53.448;9.984;2023-04-27T04:26:05;4.40;21.70
4308;DHT22;2167;53.448;9.984;2023-04-27T04:28:31;4.40;22.00
4308;DHT22;2167;53.448;9.984;2023-04-27T04:30:57;4.40;21.90
4308;DHT22;2167;53.448;9.984;2023-04-27T04:33:24;4.50;21.80
4308;DHT22;2167;53.448;9.984;2023-04-27T04:35:50;4.50;21.50
4308;DHT22;2167;53.448;9.984;2023-04-27T04:38:17;4.50;21.50
4308;DHT22;2167;53.448;9.984;2023-04-27T04:40:43;4.50;21.30
4308;DHT22;2167;53.448;9.984;2023-04-27T04:43:08;4.50;21.50
4308;DHT22;2167;53.448;9.984;2023-04-27T04:45:35;4.60;21.30
4308;DHT22;2167;53.448;9.984;2023-04-27T04:48:01;4.50;21.10
4308;DHT22;2167;53.448;9.984;2023-04-27T04:50:27;4.60;20.50
4308;DHT22;2167;53.448;9.984;2023-04-27T04:52:53;4.70;20.50
4308;DHT22;2167;53.448;9.984;2023-04-27T04:55:24;4.70;20.40
4308;DHT22;2167;53.448;9.984;2023-04-27T04:57:49;4.70;20.30
4308;DHT22;2167;53.448;9.984;2023-04-27T05:00:20;4.70;20.30
4308;DHT22;2167;53.448;9.984;2023-04-27T05:02:46;4.70;20.50
4308;DHT22;2167;53.448;9.984;2023-04-27T05:05:12;4.80;20.00
4308;DHT22;2167;53.448;9.984;2023-04-27T05:07:39;4.80;19.80
4308;DHT22;2167;53.448;9.984;2023-04-27T05:10:05;4.90;19.80
4308;DHT22;2167;53.448;9.984;2023-04-27T05:12:30;4.90;19.80
4308;DHT22;2167;53.448;9.984;2023-04-27T05:14:56;4.90;19.60
4308;DHT22;2167;53.448;9.984;2023-04-27T05:17:22;4.90;19.50
4308;DHT22;2167;53.448;9.984;2023-04-27T05:19:47;4.90;19.40
4308;DHT22;2167;53.448;9.984;2023-04-27T05:22:13;4.90;19.20
4308;DHT22;2167;53.448;9.984;2023-04-27T05:24:38;5.00;19.50
4308;DHT22;2167;53.448;9.984;2023-04-27T05:27:04;5.00;19.30
4308;DHT22;2167;53.448;9.984;2023-04-27T05:29:30;5.00;19.00
4308;DHT22;2167;53.448;9.984;2023-04-27T05:31:55;5.10;19.20
4308;DHT22;2167;53.448;9.984;2023-04-27T05:34:21;5.10;18.80
4308;DHT22;2167;53.448;9.984;2023-04-27T05:36:47;5.20;18.60
4308;DHT22;2167;53.448;9.984;2023-04-27T05:39:12;5.20;18.70
4308;DHT22;2167;53.448;9.984;2023-04-27T05:41:38;5.30;18.40
4308;DHT22;2167;53.448;9.984;2023-04-27T05:44:10;5.40;18.40
4308;DHT22;2167;53.448;9.984;2023-04-27T05:46:36;5.40;17.70
4308;DHT22;2167;53.448;9.984;2023-04-27T05:49:01;5.50;17.60
4308;DHT22;2167;53.448;9.984;2023-04-27T05:51:27;5.50;17.50
4308;DHT22;2167;53.448;9.984;2023-04-27T05:53:53;5.60;17.10
4308;DHT22;2167;53.448;9.984;2023-04-27T05:56:20;5.70;17.20
4308;DHT22;2167;53.448;9.984;2023-04-27T05:58:52;5.80;16.70
4308;DHT22;2167;53.448;9.984;2023-04-27T06:01:18;6.00;16.50
4308;DHT22;2167;53.448;9.984;2023-04-27T06:03:43;6.10;16.00
4308;DHT22;2167;53.448;9.984;2023-04-27T06:06:09;6.20;14.90
4308;DHT22;2167;53.448;9.984;2023-04-27T06:08:34;6.30;13.60
4308;DHT22;2167;53.448;9.984;2023-04-27T06:11:01;6.30;12.20
4308;DHT22;2167;53.448;9.984;2023-04-27T06:13:27;6.30;11.60
4308;DHT22;2167;53.448;9.984;2023-04-27T06:15:53;6.40;11.00
4308;DHT22;2167;53.448;9.984;2023-04-27T06:18:19;6.50;9.50
4308;DHT22;2167;53.448;9.984;2023-04-27T06:20:44;6.50;8.80
4308;DHT22;2167;53.448;9.984;2023-04-27T06:23:11;6.60;8.90
4308;DHT22;2167;53.448;9.984;2023-04-27T06:25:36;6.60;9.10
4308;DHT22;2167;53.448;9.984;2023-04-27T06:28:04;6.60;8.10
4308;DHT22;2167;53.448;9.984;2023-04-27T06:30:30;6.60;8.80
4308;DHT22;2167;53.448;9.984;2023-04-27T06:32:55;6.70;8.90
4308;DHT22;2167;53.448;9.984;2023-04-27T06:35:21;6.80;9.20
4308;DHT22;2167;53.448;9.984;2023-04-27T06:37:47;6.90;9.40
4308;DHT22;2167;53.448;9.984;2023-04-27T06:40:12;6.90;8.10
4308;DHT22;2167;53.448;9.984;2023-04-27T06:42:38;6.90;7.80
4308;DHT22;2167;53.448;9.984;2023-04-27T06:45:04;6.90;6.20
4308;DHT22;2167;53.448;9.984;2023-04-27T06:47:30;6.90;6.90
4308;DHT22;2167;53.448;9.984;2023-04-27T06:49:55;6.90;7.10
4308;DHT22;2167;53.448;9.984;2023-04-27T06:52:21;7.00;7.10
4308;DHT22;2167;53.448;9.984;2023-04-27T06:54:47;7.00;7.00
4308;DHT22;2167;53.448;9.984;2023-04-27T06:57:13;7.10;7.40
4308;DHT22;2167;53.448;9.984;2023-04-27T06:59:38;7.10;6.70
4308;DHT22;2167;53.448;9.984;2023-04-27T07:02:04;7.20;6.40
4308;DHT22;2167;53.448;9.984;2023-04-27T07:04:30;7.30;5.80
4308;DHT22;2167;53.448;9.984;2023-04-27T07:06:56;7.30;4.70
4308;DHT22;2167;53.448;9.984;2023-04-27T07:09:21;7.50;4.90
4308;DHT22;2167;53.448;9.984;2023-04-27T07:11:47;7.50;4.60
4308;DHT22;2167;53.448;9.984;2023-04-27T07:14:13;7.60;2.20
4308;DHT22;2167;53.448;9.984;2023-04-27T07:16:38;7.60;1.10
4308;DHT22;2167;53.448;9.984;2023-04-27T07:19:04;7.60;1.00
4308;DHT22;2167;53.448;9.984;2023-04-27T07:21:30;7.70;1.00
4308;DHT22;2167;53.448;9.984;2023-04-27T07:23:56;7.60;1.00
4308;DHT22;2167;53.448;9.984;2023-04-27T07:26:22;7.70;1.00
4308;DHT22;2167;53.448;9.984;2023-04-27T07:28:48;7.70;1.00
4308;DHT22;2167;53.448;9.984;2023-04-27T07:31:14;7.80;1.00
4308;DHT22;2167;53.448;9.984;2023-04-27T07:33:40;7.90;1.00
4308;DHT22;2167;53.448;9.984;2023-04-27T07:36:06;8.00;1.00
4308;DHT22;2167;53.448;9.984;2023-04-27T07:38:32;8.10;1.00
4308;DHT22;2167;53.448;9.984;2023-04-27T07:41:00;8.20;1.00
4308;DHT22;2167;53.448;9.984;2023-04-27T07:43:30;8.30;1.00
4308;DHT22;2167;53.448;9.984;2023-04-27T07:45:59;8.50;1.00
4308;DHT22;2167;53.448;9.984;2023-04-27T07:48:25;8.60;1.00
4308;DHT22;2167;53.448;9.984;2023-04-27T07:50:51;8.70;1.00
4308;DHT22;2167;53.448;9.984;2023-04-27T07:53:17;8.70;1.00
4308;DHT22;2167;53.448;9.984;2023-04-27T07:55:42;8.70;1.00
4308;DHT22;2167;53.448;9.984;2023-04-27T07:58:08;8.70;1.00
4308;DHT22;2167;53.448;9.984;2023-04-27T08:00:34;8.70;1.00
4308;DHT22;2167;53.448;9.984;2023-04-27T08:03:00;8.80;1.00
4308;DHT22;2167;53.448;9.984;2023-04-27T08:05:26;9.10;1.00
4308;DHT22;2167;53.448;9.984;2023-04-27T08:07:52;9.30;1.00
4308;DHT22;2167;53.448;9.984;2023-04-27T08:10:18;9.60;1.00
4308;DHT22;2167;53.448;9.984;2023-04-27T08:12:43;9.60;1.00
4308;DHT22;2167;53.448;9.984;2023-04-27T08:15:09;9.60;1.00
4308;DHT22;2167;53.448;9.984;2023-04-27T08:17:35;9.60;1.00
4308;DHT22;2167;53.448;9.984;2023-04-27T08:20:02;9.70;1.00
4308;DHT22;2167;53.448;9.984;2023-04-27T08:22:27;9.70;1.00
4308;DHT22;2167;53.448;9.984;2023-04-27T08:24:53;9.70;1.00
4308;DHT22;2167;53.448;9.984;2023-04-27T08:27:18;9.80;1.00
4308;DHT22;2167;53.448;9.984;2023-04-27T08:29:45;9.90;1.00
4308;DHT22;2167;53.448;9.984;2023-04-27T08:32:12;10.10;1.00
4308;DHT22;2167;53.448;9.984;2023-04-27T08:34:38;10.30;1.00
4308;DHT22;2167;53.448;9.984;2023-04-27T08:37:03;10.50;1.00
4308;DHT22;2167;53.448;9.984;2023-04-27T08:39:29;10.60;1.00
4308;DHT22;2167;53.448;9.984;2023-04-27T08:41:55;10.90;1.00
4308;DHT22;2167;53.448;9.984;2023-04-27T08:44:20;10.90;1.00
4308;DHT22;2167;53.448;9.984;2023-04-27T08:46:46;11.00;1.00
4308;DHT22;2167;53.448;9.984;2023-04-27T08:49:12;11.20;1.00
4308;DHT22;2167;53.448;9.984;2023-04-27T08:51:37;11.50;1.00
4308;DHT22;2167;53.448;9.984;2023-04-27T08:54:03;11.80;1.00
4308;DHT22;2167;53.448;9.984;2023-04-27T08:56:29;12.00;1.00
4308;DHT22;2167;53.448;9.984;2023-04-27T08:58:56;11.80;1.00
4308;DHT22;2167;53.448;9.984;2023-04-27T09:01:23;12.00;1.00
4308;DHT22;2167;53.448;9.984;2023-04-27T09:03:58;12.00;1.00
4308;DHT22;2167;53.448;9.984;2023-04-27T09:06:30;12.20;1.00
4308;DHT22;2167;53.448;9.984;2023-04-27T09:08:56;12.50;1.00
4308;DHT22;2167;53.448;9.984;2023-04-27T09:11:37;12.50;1.00
4308;DHT22;2167;53.448;9.984;2023-04-27T09:14:16;12.70;1.00
4308;DHT22;2167;53.448;9.984;2023-04-27T09:16:42;12.90;1.00
4308;DHT22;2167;53.448;9.984;2023-04-27T09:19:08;12.80;1.00
4308;DHT22;2167;53.448;9.984;2023-04-27T09:21:34;13.00;1.00
4308;DHT22;2167;53.448;9.984;2023-04-27T09:24:12;13.00;1.00
4308;DHT22;2167;53.448;9.984;2023-04-27T09:26:38;12.90;1.00
4308;DHT22;2167;53.448;9.984;2023-04-27T09:29:04;13.10;1.00
4308;DHT22;2167;53.448;9.984;2023-04-27T09:31:36;13.30;1.00
4308;DHT22;2167;53.448;9.984;2023-04-27T09:34:02;13.10;1.00
4308;DHT22;2167;53.448;9.984;2023-04-27T09:36:29;12.80;1.00
4308;DHT22;2167;53.448;9.984;2023-04-27T09:38:56;12.70;1.00
4308;DHT22;2167;53.448;9.984;2023-04-27T09:41:23;12.60;1.00
4308;DHT22;2167;53.448;9.984;2023-04-27T09:43:49;12.50;1.00
4308;DHT22;2167;53.448;9.984;2023-04-27T09:46:16;12.30;1.00
4308;DHT22;2167;53.448;9.984;2023-04-27T09:48:41;12.30;1.00
4308;DHT22;2167;53.448;9.984;2023-04-27T09:51:07;12.60;1.00
4308;DHT22;2167;53.448;9.984;2023-04-27T09:53:37;12.80;1.00
4308;DHT22;2167;53.448;9.984;2023-04-27T09:56:40;12.60;1.00
4308;DHT22;2167;53.448;9.984;2023-04-27T10:01:56;12.50;1.00
4308;DHT22;2167;53.448;9.984;2023-04-27T10:07:25;12.90;1.00
4308;DHT22;2167;53.448;9.984;2023-04-27T10:09:51;13.00;1.00
4308;DHT22;2167;53.448;9.984;2023-04-27T10:14:59;13.40;1.00
4308;DHT22;2167;53.448;9.984;2023-04-27T10:17:33;13.30;1.00
4308;DHT22;2167;53.448;9.984;2023-04-27T10:20:05;13.40;1.00
4308;DHT22;2167;53.448;9.984;2023-04-27T10:22:42;13.40;1.00
4308;DHT22;2167;53.448;9.984;2023-04-27T10:25:17;13.50;1.00
4308;DHT22;2167;53.448;9.984;2023-04-27T10:30:21;13.80;1.00
4308;DHT22;2167;53.448;9.984;2023-04-27T10:32:55;13.90;1.00
4308;DHT22;2167;53.448;9.984;2023-04-27T10:35:31;14.00;1.00
4308;DHT22;2167;53.448;9.984;2023-04-27T10:38:15;14.00;1.00
4308;DHT22;2167;53.448;9.984;2023-04-27T10:40:44;13.90;1.00
4308;DHT22;2167;53.448;9.984;2023-04-27T10:43:13;13.80;1.00
4308;DHT22;2167;53.448;9.984;2023-04-27T10:45:40;13.90;1.00
4308;DHT22;2167;53.448;9.984;2023-04-27T10:48:06;13.90;1.00
4308;DHT22;2167;53.448;9.984;2023-04-27T10:50:32;13.80;1.00
4308;DHT22;2167;53.448;9.984;2023-04-27T10:53:05;13.60;1.00
4308;DHT22;2167;53.448;9.984;2023-04-27T10:55:32;13.50;1.00
4308;DHT22;2167;53.448;9.984;2023-04-27T10:57:58;13.40;1.00
4308;DHT22;2167;53.448;9.984;2023-04-27T11:00:34;13.20;1.00
4308;DHT22;2167;53.448;9.984;2023-04-27T11:03:12;12.80;1.00
4308;DHT22;2167;53.448;9.984;2023-04-27T11:05:39;12.60;1.00
4308;DHT22;2167;53.448;9.984;2023-04-27T11:08:06;12.70;1.00
4308;DHT22;2167;53.448;9.984;2023-04-27T11:10:32;12.70;1.00
4308;DHT22;2167;53.448;9.984;2023-04-27T11:12:58;12.80;1.00
4308;DHT22;2167;53.448;9.984;2023-04-27T11:15:24;12.80;1.00
4308;DHT22;2167;53.448;9.984;2023-04-27T11:17:49;12.80;1.00
4308;DHT22;2167;53.448;9.984;2023-04-27T11:20:23;12.80;1.00
4308;DHT22;2167;53.448;9.984;2023-04-27T11:22:49;12.70;1.00
4308;DHT22;2167;53.448;9.984;2023-04-27T11:25:15;12.70;1.00
4308;DHT22;2167;53.448;9.984;2023-04-27T11:27:41;12.80;1.00
4308;DHT22;2167;53.448;9.984;2023-04-27T11:30:18;13.00;1.00
4308;DHT22;2167;53.448;9.984;2023-04-27T11:32:44;12.90;1.00
4308;DHT22;2167;53.448;9.984;2023-04-27T11:35:10;13.00;1.00
4308;DHT22;2167;53.448;9.984;2023-04-27T11:37:36;13.00;1.00
4308;DHT22;2167;53.448;9.984;2023-04-27T11:40:01;13.10;1.00
4308;DHT22;2167;53.448;9.984;2023-04-27T11:42:29;13.10;1.00
4308;DHT22;2167;53.448;9.984;2023-04-27T11:44:58;13.10;1.00
4308;DHT22;2167;53.448;9.984;2023-04-27T11:47:25;12.90;1.00
4308;DHT22;2167;53.448;9.984;2023-04-27T11:49:55;12.80;1.00
4308;DHT22;2167;53.448;9.984;2023-04-27T11:52:26;12.80;1.00
4308;DHT22;2167;53.448;9.984;2023-04-27T11:54:53;13.00;1.00
4308;DHT22;2167;53.448;9.984;2023-04-27T11:57:25;13.20;1.00
4308;DHT22;2167;53.448;9.984;2023-04-27T11:59:52;13.40;1.00
4308;DHT22;2167;53.448;9.984;2023-04-27T12:02:18;13.50;1.00
4308;DHT22;2167;53.448;9.984;2023-04-27T12:04:46;13.60;1.00
4308;DHT22;2167;53.448;9.984;2023-04-27T12:07:15;13.60;1.00
4308;DHT22;2167;53.448;9.984;2023-04-27T12:09:42;13.60;1.00
4308;DHT22;2167;53.448;9.984;2023-04-27T12:12:08;13.40;1.00
4308;DHT22;2167;53.448;9.984;2023-04-27T12:14:34;13.40;1.00
4308;DHT22;2167;53.448;9.984;2023-04-27T12:16:59;13.40;1.00
4308;DHT22;2167;53.448;9.984;2023-04-27T12:19:25;13.80;1.00
4308;DHT22;2167;53.448;9.984;2023-04-27T12:21:51;14.20;1.00
4308;DHT22;2167;53.448;9.984;2023-04-27T12:24:17;14.40;1.00
4308;DHT22;2167;53.448;9.984;2023-04-27T12:26:43;14.40;1.00
4308;DHT22;2167;53.448;9.984;2023-04-27T12:29:09;14.30;1.00
4308;DHT22;2167;53.448;9.984;2023-04-27T12:31:35;14.30;1.00
4308;DHT22;2167;53.448;9.984;2023-04-27T12:34:01;14.30;1.00
4308;DHT22;2167;53.448;9.984;2023-04-27T12:36:27;14.40;1.00
4308;DHT22;2167;53.448;9.984;2023-04-27T12:38:58;14.40;1.00
4308;DHT22;2167;53.448;9.984;2023-04-27T12:41:24;14.40;1.00
4308;DHT22;2167;53.448;9.984;2023-04-27T12:43:50;14.50;1.00
4308;DHT22;2167;53.448;9.984;2023-04-27T12:46:16;14.50;1.00
4308;DHT22;2167;53.448;9.984;2023-04-27T12:48:45;14.60;1.00
4308;DHT22;2167;53.448;9.984;2023-04-27T12:51:11;14.70;1.00
4308;DHT22;2167;53.448;9.984;2023-04-27T12:53:37;14.60;1.00
4308;DHT22;2167;53.448;9.984;2023-04-27T12:56:03;14.60;1.00
4308;DHT22;2167;53.448;9.984;2023-04-27T12:58:29;14.30;1.00
4308;DHT22;2167;53.448;9.984;2023-04-27T13:00:57;14.10;1.00
4308;DHT22;2167;53.448;9.984;2023-04-27T13:03:23;13.90;1.00
4308;DHT22;2167;53.448;9.984;2023-04-27T13:05:50;13.70;1.00
4308;DHT22;2167;53.448;9.984;2023-04-27T13:08:16;13.70;1.00
4308;DHT22;2167;53.448;9.984;2023-04-27T13:10:43;13.60;1.00
4308;DHT22;2167;53.448;9.984;2023-04-27T13:13:08;13.50;1.00
4308;DHT22;2167;53.448;9.984;2023-04-27T13:15:34;13.50;1.00
4308;DHT22;2167;53.448;9.984;2023-04-27T13:18:01;13.40;1.00
4308;DHT22;2167;53.448;9.984;2023-04-27T13:20:29;13.20;1.00
4308;DHT22;2167;53.448;9.984;2023-04-27T13:22:55;12.90;1.00
4308;DHT22;2167;53.448;9.984;2023-04-27T13:25:22;12.70;1.00
4308;DHT22;2167;53.448;9.984;2023-04-27T13:27:48;12.60;1.00
4308;DHT22;2167;53.448;9.984;2023-04-27T13:30:14;12.40;1.00
4308;DHT22;2167;53.448;9.984;2023-04-27T13:32:40;12.30;1.00
4308;DHT22;2167;53.448;9.984;2023-04-27T13:35:06;12.30;1.00
4308;DHT22;2167;53.448;9.984;2023-04-27T13:37:32;12.30;1.00
4308;DHT22;2167;53.448;9.984;2023-04-27T13:39:57;12.30;1.00
4308;DHT22;2167;53.448;9.984;2023-04-27T13:42:23;12.30;1.00
4308;DHT22;2167;53.448;9.984;2023-04-27T13:44:54;12.40;1.00
4308;DHT22;2167;53.448;9.984;2023-04-27T13:47:21;12.50;1.00
4308;DHT22;2167;53.448;9.984;2023-04-27T13:49:47;12.50;1.00
4308;DHT22;2167;53.448;9.984;2023-04-27T13:52:13;12.50;1.00
4308;DHT22;2167;53.448;9.984;2023-04-27T13:54:39;12.60;1.00
4308;DHT22;2167;53.448;9.984;2023-04-27T13:57:05;12.60;1.00
4308;DHT22;2167;53.448;9.984;2023-04-27T13:59:30;12.60;1.00
4308;DHT22;2167;53.448;9.984;2023-04-27T14:01:56;12.60;1.00
4308;DHT22;2167;53.448;9.984;2023-04-27T14:04:22;12.50;1.00
4308;DHT22;2167;53.448;9.984;2023-04-27T14:06:47;12.50;1.00
4308;DHT22;2167;53.448;9.984;2023-04-27T14:09:13;12.60;1.00
4308;DHT22;2167;53.448;9.984;2023-04-27T14:11:39;12.70;1.00
4308;DHT22;2167;53.448;9.984;2023-04-27T14:14:05;12.80;1.00
4308;DHT22;2167;53.448;9.984;2023-04-27T14:16:31;12.90;1.00
4308;DHT22;2167;53.448;9.984;2023-04-27T14:18:56;13.10;1.00
4308;DHT22;2167;53.448;9.984;2023-04-27T14:21:23;13.20;1.00
4308;DHT22;2167;53.448;9.984;2023-04-27T14:23:48;13.50;1.00
4308;DHT22;2167;53.448;9.984;2023-04-27T14:26:14;13.70;1.00
4308;DHT22;2167;53.448;9.984;2023-04-27T14:28:40;13.80;1.00
4308;DHT22;2167;53.448;9.984;2023-04-27T14:31:05;13.80;1.00
4308;DHT22;2167;53.448;9.984;2023-04-27T14:33:31;13.80;1.00
4308;DHT22;2167;53.448;9.984;2023-04-27T14:35:57;13.70;1.00
4308;DHT22;2167;53.448;9.984;2023-04-27T14:38:23;13.80;1.00
4308;DHT22;2167;53.448;9.984;2023-04-27T14:40:49;13.60;1.00
4308;DHT22;2167;53.448;9.984;2023-04-27T14:43:14;13.60;1.00
4308;DHT22;2167;53.448;9.984;2023-04-27T14:45:42;13.50;1.00
4308;DHT22;2167;53.448;9.984;2023-04-27T14:48:07;13.50;1.00
4308;DHT22;2167;53.448;9.984;2023-04-27T14:50:33;13.40;1.00
4308;DHT22;2167;53.448;9.984;2023-04-27T14:52:59;13.40;1.00
4308;DHT22;2167;53.448;9.984;2023-04-27T14:55:25;13.40;1.00
4308;DHT22;2167;53.448;9.984;2023-04-27T14:57:51;13.20;1.00
4308;DHT22;2167;53.448;9.984;2023-04-27T15:00:17;13.10;1.00
4308;DHT22;2167;53.448;9.984;2023-04-27T15:02:42;13.00;1.00
4308;DHT22;2167;53.448;9.984;2023-04-27T15:05:08;13.00;1.00
4308;DHT22;2167;53.448;9.984;2023-04-27T15:07:34;13.10;1.00
4308;DHT22;2167;53.448;9.984;2023-04-27T15:10:00;13.20;1.00
4308;DHT22;2167;53.448;9.984;2023-04-27T15:12:29;13.00;1.00
4308;DHT22;2167;53.448;9.984;2023-04-27T15:14:55;12.90;1.00
4308;DHT22;2167;53.448;9.984;2023-04-27T15:17:20;12.70;1.00
4308;DHT22;2167;53.448;9.984;2023-04-27T15:19:46;12.70;1.00
4308;DHT22;2167;53.448;9.984;2023-04-27T15:22:12;12.70;1.00
4308;DHT22;2167;53.448;9.984;2023-04-27T15:24:37;12.70;1.00
4308;DHT22;2167;53.448;9.984;2023-04-27T15:27:03;12.70;1.00
4308;DHT22;2167;53.448;9.984;2023-04-27T15:29:29;12.60;1.00
4308;DHT22;2167;53.448;9.984;2023-04-27T15:31:54;12.50;1.00
4308;DHT22;2167;53.448;9.984;2023-04-27T15:34:21;12.50;1.00
4308;DHT22;2167;53.448;9.984;2023-04-27T15:36:47;12.40;1.00
4308;DHT22;2167;53.448;9.984;2023-04-27T15:39:13;12.40;1.00
4308;DHT22;2167;53.448;9.984;2023-04-27T15:41:38;12.40;1.00
4308;DHT22;2167;53.448;9.984;2023-04-27T15:44:05;12.40;1.00
4308;DHT22;2167;53.448;9.984;2023-04-27T15:46:31;12.40;1.00
4308;DHT22;2167;53.448;9.984;2023-04-27T15:48:57;12.50;1.00
4308;DHT22;2167;53.448;9.984;2023-04-27T15:51:23;12.50;1.00
4308;DHT22;2167;53.448;9.984;2023-04-27T15:53:48;12.50;1.00
4308;DHT22;2167;53.448;9.984;2023-04-27T15:56:17;12.60;1.00
4308;DHT22;2167;53.448;9.984;2023-04-27T15:58:42;12.70;1.00
4308;DHT22;2167;53.448;9.984;2023-04-27T16:01:08;12.80;1.00
4308;DHT22;2167;53.448;9.984;2023-04-27T16:03:33;12.90;1.00
4308;DHT22;2167;53.448;9.984;2023-04-27T16:06:00;12.90;1.00
4308;DHT22;2167;53.448;9.984;2023-04-27T16:08:26;12.90;1.00
4308;DHT22;2167;53.448;9.984;2023-04-27T16:10:52;13.00;1.00
4308;DHT22;2167;53.448;9.984;2023-04-27T16:13:17;13.20;1.00
4308;DHT22;2167;53.448;9.984;2023-04-27T16:15:43;13.40;1.00
4308;DHT22;2167;53.448;9.984;2023-04-27T16:18:12;13.60;1.00
4308;DHT22;2167;53.448;9.984;2023-04-27T16:20:37;13.70;1.00
4308;DHT22;2167;53.448;9.984;2023-04-27T16:23:03;13.80;1.00
4308;DHT22;2167;53.448;9.984;2023-04-27T16:25:29;13.80;1.00